createdAt,value
2023-01-05T00:01:23.055Z,19.67
2023-01-05T00:06:23.564Z,19.60
2023-01-05T00:11:40.751Z,19.59
2023-01-05T00:16:52.724Z,19.65
2023-01-05T00:22:05.153Z,19.54
2023-01-05T00:26:59.021Z,19.61
2023-01-05T00:31:53.170Z,19.58
2023-01-05T00:36:47.872Z,19.55
2023-01-05T00:41:40.734Z,19.52
2023-01-05T00:46:34.256Z,19.50
2023-01-05T00:51:27.478Z,19.49
2023-01-05T00:56:20.486Z,19.47
2023-01-05T01:01:14.895Z,19.45
2023-01-05T01:06:08.281Z,19.44
2023-01-05T01:11:06.291Z,19.39
2023-01-05T01:15:58.537Z,19.35
2023-01-05T01:20:52.122Z,19.30
2023-01-05T01:25:45.789Z,19.34
2023-01-05T01:30:39.919Z,19.13
2023-01-05T01:35:33.933Z,19.30
2023-01-05T01:40:27.178Z,19.31
2023-01-05T01:45:22.473Z,19.28
2023-01-05T01:50:23.348Z,19.17
2023-01-05T01:55:20.200Z,19.23
2023-01-05T02:00:15.318Z,19.23
2023-01-05T02:05:13.732Z,19.21
2023-01-05T02:10:08.338Z,19.08
2023-01-05T02:15:30.225Z,19.18
2023-01-05T02:21:00.117Z,19.15
2023-01-05T02:26:13.140Z,19.14
2023-01-05T02:31:25.610Z,19.12
2023-01-05T02:36:33.445Z,19.09
2023-01-05T02:41:34.700Z,19.07
2023-01-05T02:46:30.453Z,19.05
2023-01-05T02:51:31.280Z,18.86
2023-01-05T02:56:32.264Z,19.04
2023-01-05T03:01:50.293Z,19.04
2023-01-05T03:07:00.482Z,18.93
2023-01-05T03:12:39.255Z,18.89
2023-01-05T03:17:40.836Z,18.87
2023-01-05T03:22:56.105Z,18.98
2023-01-05T03:28:08.158Z,18.97
2023-01-05T03:33:42.209Z,18.95
2023-01-05T03:38:46.146Z,18.72
2023-01-05T03:43:41.406Z,18.88
2023-01-05T03:48:35.279Z,18.78
2023-01-05T03:53:28.979Z,18.86
2023-01-05T03:58:22.474Z,18.80
2023-01-05T04:03:16.855Z,18.87
2023-01-05T04:08:10.079Z,18.86
2023-01-05T04:13:04.170Z,18.86
2023-01-05T04:17:59.208Z,18.86
2023-01-05T04:22:52.828Z,18.85
2023-01-05T04:27:48.291Z,18.82
2023-01-05T04:32:43.163Z,18.81
2023-01-05T04:37:40.143Z,18.78
2023-01-05T04:42:35.145Z,18.70
2023-01-05T04:47:28.860Z,18.56
2023-01-05T04:52:25.997Z,18.65
2023-01-05T04:57:19.839Z,18.67
2023-01-05T05:02:14.951Z,18.71
2023-01-05T05:07:10.506Z,18.54
2023-01-05T05:12:04.818Z,18.74
2023-01-05T05:17:01.133Z,18.72
2023-01-05T05:21:56.618Z,18.70
2023-01-05T05:26:53.487Z,18.50
2023-01-05T05:31:46.721Z,18.69
2023-01-05T05:36:40.723Z,18.58
2023-01-05T05:41:33.415Z,18.63
2023-01-05T05:46:27.647Z,18.61
2023-01-05T05:51:21.160Z,18.43
2023-01-05T05:56:14.573Z,18.62
2023-01-05T06:01:07.799Z,18.44
2023-01-05T06:06:03.987Z,18.62
2023-01-05T06:10:58.506Z,18.62
2023-01-05T06:15:52.228Z,18.61
2023-01-05T06:20:46.003Z,18.42
2023-01-05T06:25:39.273Z,18.50
2023-01-05T06:30:32.947Z,18.49
2023-01-05T06:35:27.284Z,18.46
2023-01-05T06:40:21.164Z,18.25
2023-01-05T06:45:15.889Z,18.30
2023-01-05T06:50:10.854Z,18.30
2023-01-05T06:55:12.115Z,18.39
2023-01-05T07:00:09.213Z,18.39
2023-01-05T07:05:02.827Z,18.38
2023-01-05T07:09:56.146Z,18.31
2023-01-05T07:14:52.984Z,18.28
2023-01-05T07:19:51.393Z,18.30
2023-01-05T07:24:44.604Z,18.27
2023-01-05T07:29:38.457Z,18.21
2023-01-05T07:34:32.074Z,18.17
2023-01-05T07:39:25.552Z,18.30
2023-01-05T07:44:18.955Z,18.33
2023-01-05T07:49:12.584Z,18.35
2023-01-05T07:54:06.067Z,18.26
2023-01-05T07:59:00.570Z,18.28
2023-01-05T08:03:54.134Z,18.33
2023-01-05T08:08:48.118Z,18.41
2023-01-05T08:13:59.977Z,18.33
2023-01-05T08:18:53.241Z,18.42
2023-01-05T08:23:46.320Z,18.22
2023-01-05T08:28:39.786Z,18.47
2023-01-05T08:33:33.401Z,18.47
2023-01-05T08:38:27.122Z,18.63
2023-01-05T08:43:20.844Z,18.60
2023-01-05T08:48:14.377Z,18.56
2023-01-05T08:53:07.660Z,18.70
2023-01-05T08:58:01.787Z,18.75
2023-01-05T09:02:56.197Z,18.76
2023-01-05T09:07:49.398Z,18.77
2023-01-05T09:12:43.328Z,18.68
2023-01-05T09:17:37.768Z,18.66
2023-01-05T09:22:36.578Z,18.75
2023-01-05T09:27:30.477Z,18.88
2023-01-05T09:32:24.835Z,18.87
2023-01-05T09:37:18.914Z,18.80
2023-01-05T09:42:18.401Z,18.84
2023-01-05T09:47:43.752Z,18.98
2023-01-05T09:52:41.964Z,18.89
2023-01-05T09:57:35.261Z,18.99
2023-01-05T10:02:34.542Z,19.05
2023-01-05T10:07:43.843Z,18.98
2023-01-05T10:13:00.381Z,19.09
2023-01-05T10:17:53.993Z,19.09
2023-01-05T10:22:57.387Z,19.14
2023-01-05T10:28:02.577Z,19.04
2023-01-05T10:33:27.846Z,19.15
2023-01-05T10:39:04.888Z,19.16
2023-01-05T10:44:12.689Z,19.07
2023-01-05T10:49:07.911Z,19.20
2023-01-05T10:54:03.984Z,19.15
2023-01-05T10:59:15.854Z,19.24
2023-01-05T11:04:35.836Z,19.21
2023-01-05T11:09:29.961Z,19.08
2023-01-05T11:14:25.633Z,19.16
2023-01-05T11:19:26.504Z,19.30
2023-01-05T11:24:25.323Z,19.31
2023-01-05T11:29:19.740Z,19.33
2023-01-05T11:34:28.120Z,19.20
2023-01-05T11:39:29.568Z,19.33
2023-01-05T11:44:23.564Z,19.33
2023-01-05T11:49:20.190Z,19.08
2023-01-05T11:54:37.193Z,19.03
2023-01-05T11:59:31.048Z,18.98
2023-01-05T12:04:47.194Z,18.87
2023-01-05T12:09:45.579Z,18.98
2023-01-05T12:14:47.397Z,18.96
2023-01-05T12:20:02.671Z,19.08
2023-01-05T12:25:17.448Z,19.09
2023-01-05T12:36:00.790Z,19.23
2023-01-05T12:41:09.500Z,19.27
2023-01-05T12:46:14.174Z,19.27
2023-01-05T12:51:33.118Z,19.30
2023-01-05T12:56:44.046Z,19.09
2023-01-05T13:01:44.829Z,19.25
2023-01-05T13:06:43.635Z,19.33
2023-01-05T13:11:44.243Z,19.29
2023-01-05T13:16:47.664Z,19.30
2023-01-05T13:21:43.661Z,19.34
2023-01-05T13:26:38.372Z,19.32
2023-01-05T13:32:18.034Z,19.36
2023-01-05T13:37:20.790Z,19.35
2023-01-05T13:42:24.878Z,19.33
2023-01-05T13:47:56.465Z,19.14
2023-01-05T13:52:56.276Z,19.19
2023-01-05T13:57:50.428Z,19.09
2023-01-05T14:02:47.405Z,19.20
2023-01-05T14:07:41.998Z,19.15
2023-01-05T14:12:57.978Z,19.25
2023-01-05T14:18:02.967Z,19.28
2023-01-05T14:22:56.855Z,19.21
2023-01-05T14:28:19.175Z,19.31
2023-01-05T14:33:12.502Z,19.28
2023-01-05T14:38:16.434Z,19.33
2023-01-05T14:43:31.931Z,19.19
2023-01-05T14:48:32.126Z,19.34
2023-01-05T14:53:38.603Z,19.36
2023-01-05T14:58:37.553Z,19.38
2023-01-05T15:03:51.049Z,19.35
2023-01-05T15:09:05.456Z,19.35
2023-01-05T15:14:50.111Z,19.17
2023-01-05T15:19:46.098Z,19.39
2023-01-05T15:24:54.253Z,19.46
2023-01-05T15:30:14.004Z,19.48
2023-01-05T15:35:24.407Z,19.41
2023-01-05T15:40:23.464Z,19.56
2023-01-05T15:45:40.307Z,19.59
2023-01-05T15:50:46.814Z,19.62
2023-01-05T15:55:44.976Z,19.50
2023-01-05T16:00:38.682Z,19.54
2023-01-05T16:05:36.090Z,19.64
2023-01-05T16:10:43.118Z,19.61
2023-01-05T16:15:37.482Z,19.60
2023-01-05T16:20:32.015Z,19.58
2023-01-05T16:25:28.080Z,19.51
2023-01-05T16:30:31.745Z,19.64
2023-01-05T16:35:45.434Z,19.65
2023-01-05T16:40:47.819Z,19.52
2023-01-05T16:45:41.403Z,19.63
2023-01-05T16:50:36.869Z,19.65
2023-01-05T16:55:30.395Z,19.58
2023-01-05T17:00:26.691Z,19.66
2023-01-05T17:05:25.266Z,19.62
2023-01-05T17:10:22.759Z,19.60
2023-01-05T17:15:26.132Z,19.59
2023-01-05T17:20:20.141Z,19.57
2023-01-05T17:25:14.581Z,19.55
2023-01-05T17:30:27.942Z,19.67
2023-01-05T17:35:21.911Z,19.60
2023-01-05T17:40:22.337Z,19.70
2023-01-05T17:45:17.434Z,19.74
2023-01-05T17:55:24.172Z,19.65
2023-01-05T18:00:22.040Z,19.78
2023-01-05T18:05:16.527Z,19.81
2023-01-05T18:10:13.921Z,19.77
2023-01-05T18:15:10.258Z,19.72
2023-01-05T18:20:04.524Z,19.77
2023-01-05T18:24:58.314Z,19.86
2023-01-05T18:29:51.951Z,19.90
2023-01-05T18:34:45.687Z,19.91
2023-01-05T18:39:39.822Z,19.79
2023-01-05T18:44:33.775Z,19.90
2023-01-05T18:49:28.620Z,19.81
2023-01-05T18:54:22.365Z,19.69
2023-01-05T18:59:16.260Z,19.82
2023-01-05T19:04:11.888Z,19.81
2023-01-05T19:09:06.511Z,19.79
2023-01-05T19:14:01.556Z,19.86
2023-01-05T19:18:57.263Z,19.93
2023-01-05T19:23:56.974Z,19.83
2023-01-05T19:28:55.179Z,19.92
2023-01-05T19:33:48.239Z,19.93
2023-01-05T19:38:43.591Z,19.86
2023-01-05T19:43:37.264Z,19.90
2023-01-05T19:48:34.754Z,20.04
2023-01-05T19:53:28.326Z,19.93
2023-01-05T19:58:21.572Z,20.07
2023-01-05T20:03:16.212Z,19.98
2023-01-05T20:08:16.685Z,20.07
2023-01-05T20:13:10.958Z,19.95
2023-01-05T20:18:05.290Z,19.93
2023-01-05T20:22:59.304Z,20.00
2023-01-05T20:27:52.867Z,20.06
2023-01-05T20:32:53.869Z,20.04
2023-01-05T20:37:47.183Z,20.01
2023-01-05T20:42:47.530Z,19.95
2023-01-05T20:47:47.484Z,19.94
2023-01-05T20:52:41.764Z,20.07
2023-01-05T20:57:36.636Z,20.06
2023-01-05T21:02:30.826Z,20.05
2023-01-05T21:07:24.437Z,20.13
2023-01-05T21:12:17.617Z,20.05
2023-01-05T21:17:12.373Z,19.98
2023-01-05T21:22:05.096Z,20.06
2023-01-05T21:26:58.796Z,20.16
2023-01-05T21:31:56.240Z,20.07
2023-01-05T21:36:49.825Z,20.02
2023-01-05T21:42:01.743Z,20.17
2023-01-05T21:46:55.250Z,20.23
2023-01-05T21:52:07.919Z,20.20
2023-01-05T21:57:01.849Z,20.09
2023-01-05T22:01:55.086Z,20.16
2023-01-05T22:06:49.393Z,19.95
2023-01-05T22:11:43.276Z,20.09
2023-01-05T22:16:36.897Z,20.08
2023-01-05T22:21:31.163Z,20.09
2023-01-05T22:26:25.645Z,20.07
2023-01-05T22:31:21.235Z,20.02
2023-01-05T22:36:20.460Z,20.01
2023-01-05T22:41:16.261Z,19.94
2023-01-05T22:46:13.365Z,20.04
2023-01-05T22:51:10.188Z,19.94
2023-01-05T22:56:04.175Z,19.96
2023-01-05T23:01:07.383Z,19.96
2023-01-05T23:06:00.469Z,20.00
2023-01-05T23:11:26.146Z,19.91
2023-01-05T23:16:19.621Z,19.93
2023-01-05T23:21:15.786Z,19.92
2023-01-05T23:26:10.000Z,19.89
2023-01-05T23:31:03.764Z,19.88
2023-01-05T23:35:57.038Z,19.79
2023-01-05T23:41:10.919Z,19.85
2023-01-05T23:46:11.385Z,19.64
2023-01-05T23:51:17.620Z,19.72
2023-01-05T23:56:23.481Z,19.76
